MST,Max TemperatureF,Mean TemperatureF,Min TemperatureF,Max Dew PointF,MeanDew PointF,Min DewpointF,Max Humidity, Mean Humidity, Min Humidity, Max Sea Level PressureIn, Mean Sea Level PressureIn, Min Sea Level PressureIn, Max VisibilityMiles, Mean VisibilityMiles, Min VisibilityMiles, Max Wind SpeedMPH, Mean Wind SpeedMPH, Max Gust SpeedMPH,PrecipitationIn, CloudCover, Events, WindDirDegrees
2013-11-1,52,40,28,35,27,21,85,59,32,30.23,30.07,29.86,10,10,10,31,14,41,0.00,1,,316
2013-11-2,64,43,22,29,25,19,92,58,23,30.23,29.99,29.67,10,10,10,23,8,29,0.00,0,,148
2013-11-3,65,48,31,36,30,24,85,55,25,29.85,29.68,29.50,10,10,5,31,7,37,0.07,4,Rain,342
2013-11-4,45,36,26,32,25,15,96,64,31,30.07,30.01,29.86,10,9,2,18,7,25,T,4,Snow,286
2013-11-5,39,29,19,31,27,18,100,82,64,30.22,30.07,29.99,10,6,0,22,7,29,0.16,5,Fog-Snow,334
2013-11-6,51,35,19,30,24,18,84,61,38,30.39,30.24,30.15,10,10,10,24,10,31,T,2,,293
2013-11-7,56,39,22,34,28,20,100,69,38,30.44,30.23,29.86,10,10,10,13,5,18,0.00,1,,160
2013-11-8,62,46,30,33,28,25,75,50,25,30.04,29.82,29.74,10,10,10,37,11,49,0.00,1,,294
2013-11-9,54,41,28,30,27,25,92,64,35,30.33,30.20,30.05,10,10,10,13,4,15,0.00,2,,53
2013-11-10,63,44,25,33,29,23,92,62,32,30.28,30.19,30.10,10,10,10,10,3,12,0.00,0,,113
2013-11-11,38,31,24,29,26,23,100,88,75,30.74,30.46,30.10,10,10,6,18,7,23,0.00,6,,73
2013-11-12,46,34,21,33,26,21,100,83,65,30.72,30.58,30.37,10,5,0,9,3,10,0.00,2,Fog,99
2013-11-13,69,45,21,36,26,19,96,59,22,30.34,30.12,29.92,10,10,10,23,6,30,0.00,2,,289
2013-11-14,58,46,33,37,32,27,82,56,30,30.06,29.91,29.73,10,10,10,18,8,23,T,2,,356
2013-11-15,59,44,29,33,28,24,100,64,28,29.70,29.55,29.39,10,10,10,17,5,25,0.00,2,,157
2013-11-16,52,43,34,25,21,17,54,42,30,29.45,29.37,29.30,10,10,10,30,16,44,0.00,2,,262
2013-11-17,48,39,29,22,14,3,54,35,15,30.07,29.83,29.43,10,10,10,31,14,40,0.00,0,,288
2013-11-18,61,41,21,25,20,16,77,50,22,30.13,30.03,29.93,10,10,10,21,6,28,0.00,0,,206
2013-11-19,60,42,23,32,25,18,75,52,28,29.91,29.75,29.63,10,10,10,25,11,36,0.00,1,,245
2013-11-20,60,39,18,32,23,9,75,51,27,30.23,29.87,29.65,10,9,1,39,10,52,T,5,Snow,312
2013-11-21,18,9,0,10,8,3,92,77,61,30.77,30.47,30.22,10,4,1,22,7,26,0.09,7,Snow,348
2013-11-22,22,7,-9,11,-3,-13,96,79,62,30.85,30.68,30.50,10,6,0,9,3,12,0.00,1,Fog,285
2013-11-23,32,17,2,16,8,-1,95,72,49,30.85,30.71,30.47,10,10,10,13,5,15,0.00,0,,100
2013-11-24,35,24,12,23,16,9,92,74,56,30.44,30.21,30.08,10,10,7,15,5,18,0.00,0,,116
2013-11-25,46,35,23,27,24,17,84,65,45,30.38,30.28,30.14,10,10,10,14,7,18,0.00,3,,322
2013-11-26,44,32,20,25,22,19,92,71,49,30.48,30.38,30.29,10,10,10,9,5,10,0.00,2,,49
2013-11-27,61,40,18,29,22,16,92,58,23,30.26,30.14,29.99,10,10,10,17,6,23,0.00,0,,352
2013-11-28,48,34,19,28,23,17,92,69,45,30.30,30.21,30.13,10,10,10,15,9,21,0.00,0,,110
2013-11-29,57,40,22,28,23,20,92,61,30,30.18,30.13,30.06,10,10,10,14,4,16,0.00,0,,283
2013-11-30,56,40,23,27,23,20,81,54,26,30.18,30.14,30.09,10,10,10,20,7,24,0.00,0,,300